Terminal Aerodrome Forecast
Issued by NWS

Home | Current Version | Previous Version | Text Only | Print | Product List | Glossary On
Versions: 1 2 3 4 5 6 7 8 9 10 11 12 13 14 15 16 17 18 19 20 21 22 23
258
FTUS43 KDVN 081703 AAD
TAFCID
TAF AMD
KCID 081703Z 0817/0912 32018G26KT 5SM -SHSN BR OVC020
     FM090300 32019G25KT 4SM -SHSN BR OVC018=

USA.gov is the U.S. government's official web portal to all federal, state and local government web resources and services.